Time;durP1;ratioP1;P1;durP2;ratioP2;P2;SDS_P1;SDS_P2;PMS_P1;PMS_P2;Temp;Humidity;BMP_temperature;BMP_pressure;BME280_temperature;BME280_humidity;BME280_pressure;Samples;Min_cycle;Max_cycle;Signal;HPM_P1;HPM_P2
2022/05/19 00:01:12;;;;;;;0.95;0.75;;;19.10;99.90;;;;;;5072794;28;20060;-79
2022/05/19 00:03:38;;;;;;;0.30;0.30;;;19.10;99.90;;;;;;5073716;28;20424;-78
2022/05/19 00:06:06;;;;;;;0.63;0.35;;;19.10;99.90;;;;;;5073765;28;20052;-79
2022/05/19 00:08:32;;;;;;;0.30;0.30;;;19.10;99.90;;;;;;5073639;28;20044;-81
2022/05/19 00:11:01;;;;;;;1.45;0.63;;;19.10;99.90;;;;;;5055911;28;20045;-79
2022/05/19 00:13:29;;;;;;;0.30;0.30;;;19.10;99.90;;;;;;5073607;28;20060;-80
2022/05/19 00:15:55;;;;;;;0.40;0.40;;;19.10;99.90;;;;;;5073607;28;20045;-79
2022/05/19 00:18:20;;;;;;;0.77;0.77;;;19.10;99.90;;;;;;5073385;28;20090;-79
2022/05/19 00:20:46;;;;;;;0.50;0.50;;;19.10;99.90;;;;;;5073587;28;20052;-80
2022/05/19 00:23:13;;;;;;;0.50;0.50;;;19.00;99.90;;;;;;5073506;28;20063;-80
2022/05/19 00:25:38;;;;;;;0.90;0.63;;;19.00;99.90;;;;;;5073427;28;20044;-80
2022/05/19 00:28:05;;;;;;;0.83;0.80;;;19.00;99.90;;;;;;5073347;28;20044;-80
2022/05/19 00:30:32;;;;;;;0.50;0.43;;;19.00;99.90;;;;;;5073331;28;20128;-79
2022/05/19 00:32:57;;;;;;;0.85;0.40;;;18.90;99.90;;;;;;5073480;28;20079;-79
2022/05/19 00:35:23;;;;;;;0.20;0.20;;;18.90;99.90;;;;;;5073435;28;20511;-79
2022/05/19 00:37:48;;;;;;;0.27;0.27;;;18.80;99.90;;;;;;5073187;28;20157;-78
2022/05/19 00:40:16;;;;;;;0.30;0.30;;;18.80;99.90;;;;;;5072443;28;20048;-79
2022/05/19 00:42:44;;;;;;;0.40;0.40;;;18.80;99.90;;;;;;5073028;28;20150;-79
2022/05/19 00:45:18;;;;;;;0.30;0.30;;;18.70;99.90;;;;;;5073303;28;20055;-80
2022/05/19 00:48:26;;;;;;;0.40;0.40;;;18.70;99.90;;;;;;5072176;28;20051;-79
2022/05/19 00:51:01;;;;;;;0.30;0.30;;;18.60;99.90;;;;;;5065269;28;20095;-79
2022/05/19 00:53:47;;;;;;;0.30;0.30;;;18.50;99.90;;;;;;5073790;28;20055;-79
2022/05/19 00:56:40;;;;;;;0.30;0.30;;;18.50;99.90;;;;;;5073851;28;20040;-79
2022/05/19 00:59:11;;;;;;;0.30;0.30;;;18.50;99.90;;;;;;5073296;28;20041;-80
2022/05/19 01:01:39;;;;;;;0.28;0.28;;;18.40;99.90;;;;;;5073260;28;20044;-80
2022/05/19 01:04:25;;;;;;;0.63;0.63;;;18.40;99.90;;;;;;5073068;28;20559;-80
2022/05/19 01:06:56;;;;;;;0.43;0.43;;;18.30;99.90;;;;;;5075383;28;20051;-79
2022/05/19 01:09:21;;;;;;;1.38;0.50;;;18.20;99.90;;;;;;5077033;28;20048;-80
2022/05/19 01:11:52;;;;;;;0.20;0.20;;;18.30;99.90;;;;;;5075917;28;20380;-80
2022/05/19 01:14:17;;;;;;;0.35;0.35;;;18.20;99.90;;;;;;5076701;28;20049;-79
2022/05/19 01:16:43;;;;;;;0.40;0.40;;;18.10;99.90;;;;;;5076599;28;20059;-80
2022/05/19 01:19:40;;;;;;;0.30;0.30;;;18.10;99.90;;;;;;5075174;28;20404;-79
2022/05/19 01:22:36;;;;;;;0.30;0.30;;;18.10;99.90;;;;;;5075402;28;20500;-79
2022/05/19 01:25:19;;;;;;;0.30;0.30;;;18.00;99.90;;;;;;5076385;28;20051;-79
2022/05/19 01:27:45;;;;;;;0.40;0.40;;;17.90;99.90;;;;;;5076649;28;20041;-80
2022/05/19 01:30:11;;;;;;;0.30;0.30;;;18.00;99.90;;;;;;5076387;28;20052;-79
2022/05/19 01:32:37;;;;;;;0.60;0.60;;;18.00;99.90;;;;;;5076303;28;20067;-80
2022/05/19 01:35:03;;;;;;;0.30;0.30;;;17.90;99.90;;;;;;5076224;28;20045;-79
2022/05/19 01:37:29;;;;;;;4.38;0.95;;;17.90;99.90;;;;;;5076156;28;20131;-80
2022/05/19 01:40:03;;;;;;;0.47;0.47;;;17.90;99.90;;;;;;5075769;28;20123;-79
2022/05/19 01:42:28;;;;;;;0.30;0.30;;;17.90;99.90;;;;;;5076209;28;20041;-79
2022/05/19 01:45:11;;;;;;;0.40;0.40;;;17.90;99.90;;;;;;5076229;28;20048;-79
2022/05/19 01:47:51;;;;;;;0.32;0.32;;;17.80;99.90;;;;;;5074774;28;20051;-79
2022/05/19 01:50:32;;;;;;;0.82;0.70;;;17.90;99.90;;;;;;5074565;28;20530;-80
2022/05/19 01:53:30;;;;;;;0.30;0.30;;;17.80;99.90;;;;;;5075760;28;20503;-79
2022/05/19 01:56:04;;;;;;;0.40;0.40;;;17.80;99.90;;;;;;5075852;28;20489;-80
2022/05/19 01:58:40;;;;;;;0.40;0.40;;;17.80;99.90;;;;;;5075745;28;20131;-79
2022/05/19 02:01:08;;;;;;;0.30;0.30;;;17.80;99.90;;;;;;5075037;28;20047;-80
2022/05/19 02:03:59;;;;;;;0.60;0.60;;;17.80;99.90;;;;;;5074971;28;20090;-79
2022/05/19 02:06:35;;;;;;;0.52;0.52;;;17.80;99.90;;;;;;5075477;28;20105;-79
2022/05/19 02:09:06;;;;;;;0.65;0.63;;;17.80;99.90;;;;;;5075328;28;20123;-79
2022/05/19 02:11:42;;;;;;;0.30;0.30;;;17.80;99.90;;;;;;5074947;28;20073;-79
2022/05/19 02:14:12;;;;;;;2.13;1.48;;;17.80;99.90;;;;;;5075529;28;20044;-80
2022/05/19 02:16:39;;;;;;;0.60;0.60;;;17.70;99.90;;;;;;5075283;28;20052;-80
2022/05/19 02:19:05;;;;;;;;;;;17.70;99.90;;;;;;5073576;28;20103;-79
2022/05/19 02:21:31;;;;;;;0.75;0.68;;;17.70;99.90;;;;;;5075273;28;20125;-80
2022/05/19 02:24:01;;;;;;;0.40;0.40;;;17.70;99.90;;;;;;5075279;28;20135;-79
2022/05/19 02:26:34;;;;;;;0.30;0.30;;;17.70;99.90;;;;;;5075519;28;20048;-79
2022/05/19 02:29:06;;;;;;;0.63;0.63;;;17.60;99.90;;;;;;5075517;28;20037;-80
2022/05/19 02:31:32;;;;;;;2.83;0.93;;;17.60;99.90;;;;;;5075314;28;20083;-79
2022/05/19 02:33:57;;;;;;;2.47;1.30;;;17.60;99.90;;;;;;5075169;28;20080;-80
2022/05/19 02:36:23;;;;;;;0.60;0.60;;;17.50;99.90;;;;;;5073774;28;20048;-79
2022/05/19 02:38:48;;;;;;;0.53;0.53;;;17.50;99.90;;;;;;5075268;28;20044;-79
2022/05/19 02:41:14;;;;;;;0.93;0.90;;;17.50;99.90;;;;;;5074028;28;20121;-79
2022/05/19 02:43:40;;;;;;;0.80;0.80;;;17.50;99.90;;;;;;5073743;28;20048;-79
2022/05/19 02:46:05;;;;;;;3.90;0.93;;;17.40;99.90;;;;;;5074684;28;20154;-79
2022/05/19 02:48:32;;;;;;;1.07;0.97;;;17.40;99.90;;;;;;5074945;28;20036;-80
2022/05/19 02:51:00;;;;;;;0.70;0.70;;;17.40;99.90;;;;;;5074656;28;20068;-78
2022/05/19 02:53:26;;;;;;;0.30;0.30;;;17.40;99.90;;;;;;5075205;28;20050;-79
2022/05/19 02:55:51;;;;;;;0.30;0.30;;;17.40;99.90;;;;;;5074672;28;20033;-78
2022/05/19 02:58:18;;;;;;;0.57;0.50;;;17.30;99.90;;;;;;5074496;28;20438;-79
2022/05/19 03:00:47;;;;;;;1.48;1.38;;;17.30;99.90;;;;;;5074867;28;20063;-78
2022/05/19 03:03:12;;;;;;;0.75;0.75;;;17.30;99.90;;;;;;5074567;28;20052;-79
2022/05/19 03:05:39;;;;;;;0.60;0.60;;;17.30;99.90;;;;;;5074302;28;20485;-79
2022/05/19 03:08:06;;;;;;;3.30;1.05;;;17.30;99.90;;;;;;5074542;28;20090;-79
2022/05/19 03:10:32;;;;;;;1.05;1.02;;;17.30;99.90;;;;;;5074361;28;20064;-78
2022/05/19 03:12:57;;;;;;;0.50;0.50;;;17.30;99.90;;;;;;5074636;28;20127;-78
2022/05/19 03:15:24;;;;;;;1.10;0.73;;;17.30;99.90;;;;;;5074339;28;20048;-79
2022/05/19 03:17:49;;;;;;;1.55;1.45;;;17.30;99.90;;;;;;5074184;28;20052;-79
2022/05/19 03:20:16;;;;;;;1.73;1.30;;;17.30;99.90;;;;;;5073071;28;20484;-78
2022/05/19 03:22:41;;;;;;;0.50;0.50;;;17.30;99.90;;;;;;5074211;28;20488;-79
2022/05/19 03:25:08;;;;;;;0.70;0.60;;;17.30;99.90;;;;;;5074063;28;20054;-79
2022/05/19 03:27:35;;;;;;;0.73;0.73;;;17.30;99.90;;;;;;5073058;28;20051;-79
2022/05/19 03:30:01;;;;;;;0.65;0.50;;;17.30;99.90;;;;;;5073792;28;20045;-79
2022/05/19 03:32:27;;;;;;;0.73;0.52;;;17.20;99.90;;;;;;5074122;28;20049;-79
2022/05/19 03:34:53;;;;;;;0.63;0.60;;;17.20;99.90;;;;;;5073921;28;20052;-80
2022/05/19 03:37:18;;;;;;;0.83;0.83;;;17.30;99.90;;;;;;5074237;28;20289;-80
2022/05/19 03:39:44;;;;;;;1.07;0.70;;;17.20;99.90;;;;;;5073829;28;20063;-80
2022/05/19 03:42:10;;;;;;;0.70;0.70;;;17.10;99.90;;;;;;5073516;28;20048;-79
2022/05/19 03:44:37;;;;;;;1.93;1.73;;;17.10;99.90;;;;;;5073917;28;20041;-78
2022/05/19 03:47:03;;;;;;;;;;;17.10;99.90;;;;;;5074278;28;20137;-80
2022/05/19 03:49:29;;;;;;;1.30;0.95;;;17.10;99.90;;;;;;5073712;28;19920;-79
2022/05/19 03:51:54;;;;;;;1.07;0.73;;;17.00;99.90;;;;;;5073910;28;20055;-80
2022/05/19 03:54:20;;;;;;;1.67;0.40;;;17.00;99.90;;;;;;5073861;28;20041;-79
2022/05/19 03:56:46;;;;;;;0.33;0.33;;;17.00;99.90;;;;;;5073779;28;20135;-80
2022/05/19 03:59:11;;;;;;;1.60;0.60;;;17.00;99.90;;;;;;5073684;28;20047;-80
2022/05/19 04:01:37;;;;;;;1.60;0.93;;;17.00;99.90;;;;;;5073793;28;20048;-79
2022/05/19 04:04:03;;;;;;;2.00;1.07;;;17.00;99.90;;;;;;5073678;28;20098;-80
2022/05/19 04:06:29;;;;;;;0.73;0.73;;;17.00;99.90;;;;;;5073714;28;20109;-80
2022/05/19 04:08:55;;;;;;;1.65;0.80;;;17.10;99.90;;;;;;5073422;28;20067;-79
2022/05/19 04:11:20;;;;;;;0.33;0.33;;;17.00;99.90;;;;;;5073828;28;20059;-80
2022/05/19 04:13:46;;;;;;;0.63;0.63;;;17.00;99.90;;;;;;5073588;28;20089;-80
2022/05/19 04:16:12;;;;;;;0.60;0.60;;;17.10;99.90;;;;;;5073618;28;20507;-79
2022/05/19 04:18:38;;;;;;;0.30;0.30;;;17.10;99.90;;;;;;5073426;28;20036;-78
2022/05/19 04:21:05;;;;;;;0.40;0.40;;;17.10;99.90;;;;;;5073322;28;20473;-78
2022/05/19 04:23:31;;;;;;;0.30;0.30;;;17.10;99.90;;;;;;5073513;28;20129;-79
2022/05/19 04:25:56;;;;;;;1.23;0.77;;;17.10;99.90;;;;;;5073244;28;20040;-78
2022/05/19 04:28:22;;;;;;;1.27;0.80;;;17.20;99.90;;;;;;5073555;28;20358;-78
2022/05/19 04:30:48;;;;;;;0.63;0.60;;;17.20;99.90;;;;;;5073443;28;20480;-79
2022/05/19 04:33:13;;;;;;;0.50;0.50;;;17.30;99.90;;;;;;5073337;28;20052;-75
2022/05/19 04:35:39;;;;;;;1.67;0.70;;;17.40;99.90;;;;;;5072946;28;20071;-77
2022/05/19 04:38:14;;;;;;;0.73;0.73;;;17.40;99.90;;;;;;5073627;28;20131;-79
2022/05/19 04:40:42;;;;;;;0.63;0.63;;;17.50;99.90;;;;;;5072367;28;20468;-79
2022/05/19 04:43:09;;;;;;;0.30;0.30;;;17.60;99.90;;;;;;5075960;28;20041;-81
2022/05/19 04:45:35;;;;;;;1.88;0.85;;;17.60;99.90;;;;;;5076189;28;20098;-80
2022/05/19 04:48:00;;;;;;;0.55;0.40;;;17.60;99.90;;;;;;5077041;28;20523;-80
2022/05/19 04:50:27;;;;;;;0.30;0.30;;;17.70;99.90;;;;;;5075803;28;20045;-80
2022/05/19 04:52:54;;;;;;;0.40;0.40;;;17.80;99.90;;;;;;5075657;28;20147;-78
2022/05/19 04:55:20;;;;;;;0.60;0.60;;;17.80;99.90;;;;;;5076914;28;20127;-79
2022/05/19 04:57:46;;;;;;;1.10;0.73;;;17.90;99.90;;;;;;5076879;28;20136;-83
2022/05/19 05:00:14;;;;;;;3.53;1.05;;;17.90;99.90;;;;;;5059119;28;20040;-83
2022/05/19 05:02:40;;;;;;;0.95;0.93;;;18.00;99.90;;;;;;5076440;28;20519;-82
2022/05/19 05:05:06;;;;;;;0.73;0.73;;;18.00;99.90;;;;;;5059344;28;20044;-83
2022/05/19 05:07:32;;;;;;;1.08;0.98;;;18.10;99.90;;;;;;5059111;28;20105;-82
2022/05/19 05:09:58;;;;;;;1.17;1.07;;;18.20;99.90;;;;;;5092329;28;20060;-80
2022/05/19 05:12:23;;;;;;;0.87;0.77;;;18.30;99.90;;;;;;5075457;28;20048;-78
2022/05/19 05:14:49;;;;;;;1.03;0.97;;;18.40;99.90;;;;;;5076508;28;20055;-79
2022/05/19 05:17:16;;;;;;;2.07;1.33;;;18.50;99.90;;;;;;5076457;28;20045;-81
2022/05/19 05:19:42;;;;;;;0.52;0.52;;;18.50;99.90;;;;;;5076179;28;20473;-83
2022/05/19 05:22:07;;;;;;;0.73;0.73;;;18.60;99.90;;;;;;5076919;28;20048;-81
2022/05/19 05:24:33;;;;;;;0.93;0.67;;;18.70;99.90;;;;;;5076414;28;20045;-83
2022/05/19 05:26:59;;;;;;;1.03;0.73;;;18.80;99.90;;;;;;5058739;28;20052;-82
2022/05/19 05:29:24;;;;;;;0.43;0.43;;;18.90;99.90;;;;;;5075354;28;20049;-81
2022/05/19 05:31:50;;;;;;;0.30;0.30;;;19.00;99.90;;;;;;5075933;28;20139;-83
2022/05/19 05:34:16;;;;;;;2.03;0.87;;;19.20;99.90;;;;;;5075568;28;20138;-84
2022/05/19 05:36:42;;;;;;;0.82;0.45;;;19.30;99.90;;;;;;5075307;28;20087;-80
2022/05/19 05:39:07;;;;;;;0.70;0.70;;;19.40;99.90;;;;;;5076192;28;20076;-80
2022/05/19 05:41:33;;;;;;;0.50;0.50;;;19.50;99.90;;;;;;5076045;28;20048;-78
2022/05/19 05:43:58;;;;;;;0.40;0.40;;;19.50;99.90;;;;;;5074725;28;20086;-80
2022/05/19 05:46:24;;;;;;;1.87;1.03;;;19.60;99.90;;;;;;5074824;28;20049;-81
2022/05/19 05:48:51;;;;;;;0.97;0.83;;;19.70;99.90;;;;;;5075088;28;20051;-79
2022/05/19 05:51:16;;;;;;;;;;;19.60;99.90;;;;;;5076298;28;20051;-78
2022/05/19 05:53:44;;;;;;;0.60;0.60;;;19.80;99.90;;;;;;5076004;28;20011;-83
2022/05/19 05:56:13;;;;;;;1.45;1.27;;;19.90;99.90;;;;;;5074475;28;20102;-81
2022/05/19 05:58:39;;;;;;;0.40;0.40;;;20.20;99.90;;;;;;5074720;28;20055;-78
2022/05/19 06:01:08;;;;;;;0.45;0.45;;;20.40;99.90;;;;;;5074341;28;20508;-78
2022/05/19 06:03:34;;;;;;;0.68;0.68;;;20.70;99.90;;;;;;5075645;28;20484;-79
2022/05/19 06:06:01;;;;;;;;;;;21.10;99.90;;;;;;5076123;28;20086;-82
2022/05/19 06:08:27;;;;;;;0.30;0.30;;;21.40;99.90;;;;;;5074973;28;20430;-86
2022/05/19 06:10:52;;;;;;;0.40;0.40;;;21.50;99.90;;;;;;5074433;28;20056;-82
2022/05/19 06:13:19;;;;;;;0.67;0.50;;;21.50;99.90;;;;;;5075784;28;20107;-81
2022/05/19 06:15:44;;;;;;;0.47;0.47;;;21.50;99.90;;;;;;5057672;28;20448;-84
2022/05/19 06:18:11;;;;;;;0.30;0.30;;;21.50;99.90;;;;;;5074475;28;20083;-84
2022/05/19 06:20:37;;;;;;;0.30;0.30;;;21.50;99.90;;;;;;5074629;28;20476;-85
2022/05/19 06:23:03;;;;;;;0.20;0.20;;;21.40;99.90;;;;;;5058373;28;20048;-86
2022/05/19 06:25:30;;;;;;;0.52;0.45;;;21.40;99.90;;;;;;5087474;28;20130;-82
2022/05/19 06:27:56;;;;;;;;;;;21.40;99.90;;;;;;5078511;28;20048;-86
2022/05/19 06:30:22;;;;;;;0.40;0.40;;;21.30;99.90;;;;;;5077658;28;20261;-81
2022/05/19 06:32:49;;;;;;;1.98;0.60;;;21.30;99.90;;;;;;5077656;28;20396;-85
2022/05/19 06:35:18;;;;;;;13.90;0.88;;;21.40;99.90;;;;;;5094199;28;20446;-85
2022/05/19 06:37:44;;;;;;;1.80;1.00;;;21.40;99.90;;;;;;5093993;28;20043;-84
2022/05/19 06:40:13;;;;;;;1.10;0.75;;;21.50;99.90;;;;;;5094017;28;20036;-83
2022/05/19 06:42:39;;;;;;;0.32;0.32;;;21.50;99.90;;;;;;5094078;28;20506;-82
2022/05/19 06:45:06;;;;;;;0.50;0.50;;;21.60;99.90;;;;;;5111165;28;20048;-85
2022/05/19 06:47:31;;;;;;;1.65;0.63;;;21.70;99.90;;;;;;5077036;28;20181;-81
2022/05/19 06:49:58;;;;;;;2.07;1.20;;;22.00;99.90;;;;;;5111073;28;20083;-84
2022/05/19 06:52:29;;;;;;;0.50;0.40;;;22.30;99.90;;;;;;5093722;28;20044;-78
2022/05/19 06:54:57;;;;;;;0.55;0.55;;;22.50;99.90;;;;;;5094805;28;20040;-80
2022/05/19 06:57:24;;;;;;;0.32;0.32;;;22.70;99.90;;;;;;5094051;28;20040;-79
2022/05/19 06:59:51;;;;;;;0.30;0.30;;;22.80;99.90;;;;;;5093650;28;20089;-80
2022/05/19 07:02:18;;;;;;;;;;;22.80;99.90;;;;;;5095393;28;20117;-78
2022/05/19 07:04:44;;;;;;;0.30;0.30;;;22.80;99.90;;;;;;5094992;28;19942;-79
2022/05/19 07:07:11;;;;;;;0.30;0.30;;;22.80;99.90;;;;;;5093485;28;20123;-81
2022/05/19 07:09:37;;;;;;;0.25;0.25;;;22.80;99.90;;;;;;5093470;28;20834;-81
2022/05/19 07:12:04;;;;;;;0.20;0.20;;;22.80;99.90;;;;;;5093645;28;20086;-82
2022/05/19 07:14:31;;;;;;;3.95;1.20;;;22.80;99.90;;;;;;5094494;28;20090;-83
2022/05/19 07:16:57;;;;;;;;;;;23.00;99.90;;;;;;5094163;28;20430;-81
2022/05/19 07:22:13;;;;;;;0.30;0.30;;;23.30;99.90;;;;;;5093637;28;20048;-83
2022/05/19 07:24:39;;;;;;;0.30;0.30;;;23.50;99.90;;;;;;5093556;28;20052;-82
2022/05/19 07:27:05;;;;;;;0.30;0.30;;;23.60;99.90;;;;;;5076416;28;20044;-83
2022/05/19 07:29:31;;;;;;;0.47;0.47;;;23.70;99.90;;;;;;5093291;28;20043;-82
2022/05/19 07:32:01;;;;;;;0.20;0.20;;;23.70;99.90;;;;;;5093357;28;20052;-80
2022/05/19 07:34:28;;;;;;;0.47;0.47;;;23.70;99.90;;;;;;5094499;28;20075;-79
2022/05/19 07:36:55;;;;;;;0.30;0.30;;;23.60;99.90;;;;;;5094181;28;20050;-79
2022/05/19 07:39:22;;;;;;;0.30;0.30;;;23.50;99.90;;;;;;5094034;28;20480;-79
2022/05/19 07:41:47;;;;;;;0.40;0.40;;;23.40;99.90;;;;;;5094021;28;20050;-80
2022/05/19 07:44:14;;;;;;;0.63;0.60;;;23.30;99.90;;;;;;5093966;28;20043;-80
2022/05/19 07:46:39;;;;;;;0.20;0.20;;;23.20;99.90;;;;;;5094218;28;20286;-81
2022/05/19 07:49:06;;;;;;;0.20;0.20;;;23.10;99.90;;;;;;5094105;28;20036;-81
2022/05/19 07:51:36;;;;;;;;;;;23.00;99.90;;;;;;5093904;28;20282;-79
2022/05/19 07:54:07;;;;;;;0.20;0.20;;;22.90;99.90;;;;;;5092617;28;19945;-81
2022/05/19 07:56:33;;;;;;;0.32;0.30;;;22.80;99.90;;;;;;5093292;28;20070;-79
2022/05/19 07:59:00;;;;;;;0.45;0.45;;;22.80;99.90;;;;;;5093554;28;20036;-78
2022/05/19 08:01:26;;;;;;;0.20;0.20;;;22.60;99.90;;;;;;5093645;28;20063;-77
2022/05/19 08:03:52;;;;;;;0.40;0.40;;;22.50;99.90;;;;;;5092600;28;20119;-77
2022/05/19 08:06:17;;;;;;;0.37;0.37;;;22.40;99.90;;;;;;5093812;28;20123;-79
2022/05/19 08:08:44;;;;;;;0.40;0.40;;;22.30;99.90;;;;;;5092625;28;20044;-79
2022/05/19 08:11:10;;;;;;;0.20;0.20;;;22.10;99.90;;;;;;5094394;28;20044;-76
2022/05/19 08:16:22;;;;;;;0.40;0.40;;;22.00;99.90;;;;;;5095000;28;20064;-76
2022/05/19 08:18:48;;;;;;;18.10;1.30;;;22.00;99.90;;;;;;5097696;28;20083;-82
2022/05/19 08:21:15;;;;;;;0.63;0.63;;;22.10;99.90;;;;;;5098001;28;20054;-87
2022/05/19 08:23:45;;;;;;;0.40;0.40;;;22.10;99.90;;;;;;5080013;28;20105;-82
2022/05/19 08:26:11;;;;;;;0.43;0.43;;;22.20;99.90;;;;;;5096636;28;20172;-82
2022/05/19 08:28:39;;;;;;;0.65;0.65;;;22.10;99.90;;;;;;5097834;28;20039;-85
2022/05/19 08:31:11;;;;;;;0.30;0.30;;;22.10;99.90;;;;;;5096929;28;20097;-81
2022/05/19 08:33:37;;;;;;;0.50;0.50;;;22.10;99.90;;;;;;5096795;28;20048;-85
2022/05/19 08:36:04;;;;;;;0.57;0.57;;;22.20;99.90;;;;;;5080002;28;20051;-86
2022/05/19 08:38:31;;;;;;;0.30;0.30;;;22.20;99.90;;;;;;5096625;28;20044;-84
2022/05/19 08:41:07;;;;;;;0.30;0.30;;;22.30;99.90;;;;;;5096590;28;20048;-80
2022/05/19 08:43:38;;;;;;;0.40;0.40;;;22.40;99.90;;;;;;5097445;28;20126;-85
2022/05/19 08:46:04;;;;;;;4.47;1.38;;;22.40;99.90;;;;;;5097537;28;20047;-85
2022/05/19 08:48:30;;;;;;;0.30;0.30;;;22.50;99.90;;;;;;5079611;28;20040;-87
2022/05/19 08:51:11;;;;;;;0.30;0.30;;;22.60;99.90;;;;;;5078913;28;20476;-83
2022/05/19 08:53:41;;;;;;;0.30;0.30;;;22.60;99.90;;;;;;5079485;28;20076;-82
2022/05/19 08:56:47;;;;;;;0.30;0.30;;;22.60;99.90;;;;;;5097128;28;20093;-80
2022/05/19 08:59:39;;;;;;;0.77;0.75;;;22.70;99.90;;;;;;5014750;28;20042;-78
2022/05/19 09:02:12;;;;;;;0.80;0.52;;;22.70;99.90;;;;;;5065471;28;20048;-80
2022/05/19 09:05:10;;;;;;;0.52;0.52;;;22.80;99.90;;;;;;5096801;28;20051;-80
2022/05/19 09:07:59;;;;;;;0.75;0.75;;;22.90;99.90;;;;;;5095150;28;20095;-81
2022/05/19 09:10:43;;;;;;;0.50;0.50;;;22.90;99.90;;;;;;5095473;28;20135;-83
2022/05/19 09:13:21;;;;;;;0.20;0.20;;;22.90;99.90;;;;;;5096951;28;20044;-83
2022/05/19 09:15:47;;;;;;;0.68;0.68;;;22.90;99.90;;;;;;5097290;28;20075;-82
2022/05/19 09:18:15;;;;;;;0.73;0.73;;;23.10;99.90;;;;;;5095928;28;20491;-82
2022/05/19 09:20:46;;;;;;;0.68;0.68;;;23.20;99.90;;;;;;5096779;28;20297;-81
2022/05/19 09:23:11;;;;;;;0.40;0.40;;;23.20;99.90;;;;;;5095571;28;20044;-80
2022/05/19 09:25:43;;;;;;;1.10;0.67;;;23.30;99.90;;;;;;5096569;28;20044;-82
2022/05/19 09:28:12;;;;;;;0.40;0.40;;;23.50;99.90;;;;;;5095654;28;20575;-82
2022/05/19 09:30:45;;;;;;;0.50;0.50;;;23.50;99.90;;;;;;5095378;28;20051;-83
2022/05/19 09:33:18;;;;;;;1.85;1.00;;;23.50;99.90;;;;;;5096668;28;20075;-82
2022/05/19 09:35:49;;;;;;;0.77;0.70;;;23.60;99.90;;;;;;5095689;28;20369;-82
2022/05/19 09:38:37;;;;;;;0.52;0.52;;;23.80;99.90;;;;;;5078609;28;20353;-83
2022/05/19 09:41:17;;;;;;;0.85;0.85;;;24.10;99.90;;;;;;5078527;28;20104;-84
2022/05/19 09:43:51;;;;;;;2.50;1.30;;;24.20;99.90;;;;;;5095830;28;20059;-84
2022/05/19 09:46:17;;;;;;;0.77;0.77;;;24.40;99.90;;;;;;5092113;28;20531;-82
2022/05/19 09:48:48;;;;;;;0.20;0.20;;;24.70;99.90;;;;;;5080129;28;20044;-83
2022/05/19 09:51:17;;;;;;;1.55;0.80;;;24.80;99.90;;;;;;5085343;28;20599;-82
2022/05/19 09:53:59;;;;;;;1.33;0.68;;;24.80;99.90;;;;;;5094663;28;20150;-76
2022/05/19 09:56:37;;;;;;;0.80;0.57;;;24.90;99.90;;;;;;5095953;28;20102;-81
2022/05/19 09:59:36;;;;;;;0.35;0.35;;;24.80;99.90;;;;;;5093590;28;20055;-82
2022/05/19 10:02:25;;;;;;;0.50;0.50;;;25.00;99.90;;;;;;5096374;28;20547;-78
2022/05/19 10:04:59;;;;;;;0.45;0.45;;;25.10;99.90;;;;;;5093992;28;20052;-78
2022/05/19 10:07:46;;;;;;;0.30;0.30;;;25.30;99.90;;;;;;5096608;28;20480;-84
2022/05/19 10:10:27;;;;;;;1.05;0.80;;;25.50;99.90;;;;;;5096128;28;20433;-80
2022/05/19 10:12:58;;;;;;;0.80;0.60;;;25.40;99.90;;;;;;5096336;28;20051;-83
2022/05/19 10:15:30;;;;;;;0.20;0.20;;;25.60;99.90;;;;;;5096300;28;20459;-82
2022/05/19 10:18:18;;;;;;;0.30;0.30;;;25.70;99.90;;;;;;5095247;28;20076;-81
2022/05/19 10:20:48;;;;;;;;;;;25.70;99.90;;;;;;5096016;28;20514;-80
2022/05/19 10:23:31;;;;;;;1.83;1.42;;;25.70;99.90;;;;;;5096080;28;19920;-81
2022/05/19 10:26:25;;;;;;;0.40;0.40;;;26.00;99.90;;;;;;5094543;28;20044;-78
2022/05/19 10:32:22;;;;;;;1.48;0.90;;;26.40;99.90;;;;;;5093806;28;20127;-79
2022/05/19 10:35:10;;;;;;;1.38;0.82;;;26.40;99.90;;;;;;5095145;28;20100;-81
2022/05/19 10:37:54;;;;;;;;;;;26.30;99.90;;;;;;5095796;28;20515;-81
2022/05/19 10:40:38;;;;;;;0.60;0.40;;;26.30;99.90;;;;;;5094418;28;19924;-78
2022/05/19 10:43:09;;;;;;;0.40;0.40;;;26.40;99.90;;;;;;5094286;28;20083;-76
2022/05/19 10:45:40;;;;;;;0.65;0.60;;;26.30;99.90;;;;;;5095307;28;20036;-79
2022/05/19 10:48:26;;;;;;;0.50;0.50;;;26.40;99.90;;;;;;5094189;28;20043;-85
2022/05/19 10:51:16;;;;;;;0.38;0.38;;;26.40;99.90;;;;;;5091140;28;20049;-82
2022/05/19 10:54:08;;;;;;;0.40;0.40;;;26.30;99.90;;;;;;5054982;28;20063;-81
2022/05/19 10:57:17;;;;;;;0.50;0.47;;;26.30;99.90;;;;;;5075100;28;20400;-83
2022/05/19 11:00:05;;;;;;;0.30;0.30;;;26.30;99.90;;;;;;5073569;28;20060;-84
2022/05/19 11:02:40;;;;;;;0.50;0.50;;;26.20;99.90;;;;;;5074793;28;20051;-84
2022/05/19 11:05:15;;;;;;;0.63;0.63;;;26.20;99.90;;;;;;5074524;28;20044;-82
2022/05/19 11:07:54;;;;;;;0.57;0.52;;;26.40;99.90;;;;;;5074607;28;20084;-83
2022/05/19 11:10:43;;;;;;;0.65;0.57;;;26.30;99.90;;;;;;5074523;28;20060;-82
2022/05/19 11:13:21;;;;;;;0.77;0.68;;;26.20;99.90;;;;;;5074694;28;20053;-84
2022/05/19 11:15:55;;;;;;;0.20;0.20;;;26.00;99.90;;;;;;5074460;28;20049;-87
2022/05/19 11:18:46;;;;;;;0.40;0.40;;;26.00;99.90;;;;;;5074448;28;20060;-85
2022/05/19 11:21:33;;;;;;;0.43;0.40;;;26.00;99.90;;;;;;5074452;28;20092;-84
2022/05/19 11:24:11;;;;;;;1.00;0.63;;;26.10;99.90;;;;;;5074335;28;20090;-84
2022/05/19 11:26:49;;;;;;;0.30;0.30;;;26.30;99.90;;;;;;5073391;28;20374;-82
2022/05/19 11:29:23;;;;;;;0.73;0.73;;;26.50;99.90;;;;;;5073328;28;20056;-84
2022/05/19 11:32:08;;;;;;;0.20;0.20;;;26.70;99.90;;;;;;5073885;28;20558;-84
2022/05/19 11:34:45;;;;;;;0.40;0.40;;;26.80;99.90;;;;;;5074281;28;20475;-84
2022/05/19 11:37:14;;;;;;;0.50;0.50;;;27.10;99.90;;;;;;5073444;28;20055;-82
2022/05/19 11:39:54;;;;;;;0.45;0.40;;;27.40;99.90;;;;;;5074088;28;20210;-86
2022/05/19 11:42:53;;;;;;;0.20;0.20;;;27.60;99.00;;;;;;5057628;28;20044;-81
2022/05/19 11:45:47;;;;;;;0.85;0.45;;;27.70;98.00;;;;;;5070724;28;20063;-85
2022/05/19 11:55:12;;;;;;;0.25;0.25;;;28.30;96.40;;;;;;5073900;28;20477;-83
2022/05/19 11:58:01;;;;;;;1.10;0.95;;;28.50;97.40;;;;;;5072593;28;20056;-81
2022/05/19 12:00:52;;;;;;;0.30;0.30;;;28.50;96.30;;;;;;5073762;28;20047;-81
2022/05/19 12:03:43;;;;;;;0.20;0.20;;;28.50;97.10;;;;;;5074063;28;20591;-81
2022/05/19 12:06:09;;;;;;;0.28;0.28;;;28.60;95.70;;;;;;5073723;28;20048;-82
2022/05/19 12:08:44;;;;;;;0.30;0.30;;;28.40;94.90;;;;;;5073814;28;20043;-85
2022/05/19 12:11:45;;;;;;;0.47;0.45;;;28.40;96.20;;;;;;5073150;28;20048;-85
2022/05/19 12:14:11;;;;;;;0.20;0.20;;;28.40;96.10;;;;;;5074073;28;20477;-84
2022/05/19 12:16:48;;;;;;;0.43;0.43;;;28.40;96.00;;;;;;5074273;28;20054;-85
2022/05/19 12:19:36;;;;;;;0.50;0.50;;;28.40;96.40;;;;;;5073375;28;20072;-85
2022/05/19 12:22:05;;;;;;;0.57;0.40;;;28.40;95.20;;;;;;5073517;28;20045;-82
2022/05/19 12:24:36;;;;;;;0.30;0.30;;;28.20;95.50;;;;;;5073724;28;20048;-83
2022/05/19 12:27:18;;;;;;;5.00;1.83;;;28.10;96.80;;;;;;5073680;28;20484;-82
2022/05/19 12:33:13;;;;;;;0.20;0.20;;;28.30;96.50;;;;;;5073658;28;20496;-84
2022/05/19 12:35:40;;;;;;;1.08;0.57;;;28.30;95.10;;;;;;5073573;28;20048;-82
2022/05/19 12:38:33;;;;;;;0.25;0.25;;;28.30;95.00;;;;;;5072865;28;20059;-82
2022/05/19 12:41:04;;;;;;;0.30;0.30;;;28.20;95.80;;;;;;5073457;28;20048;-85
2022/05/19 12:43:44;;;;;;;0.20;0.20;;;28.10;96.50;;;;;;5073807;28;20048;-84
2022/05/19 12:46:34;;;;;;;0.70;0.70;;;28.10;96.70;;;;;;5073398;28;20178;-84
2022/05/19 12:49:20;;;;;;;0.50;0.40;;;27.90;96.50;;;;;;5089164;28;20098;-84
2022/05/19 12:51:56;;;;;;;0.35;0.30;;;27.90;97.20;;;;;;5073562;28;20044;-84
2022/05/19 12:54:25;;;;;;;0.20;0.20;;;27.70;96.50;;;;;;5084222;28;20040;-83
2022/05/19 12:56:55;;;;;;;0.20;0.20;;;27.60;97.20;;;;;;5078388;28;20558;-83
2022/05/19 12:59:44;;;;;;;0.20;0.20;;;27.40;98.10;;;;;;5072198;28;20041;-81
2022/05/19 13:02:35;;;;;;;0.20;0.20;;;27.20;98.40;;;;;;5073316;28;20040;-79
2022/05/19 13:05:09;;;;;;;0.30;0.30;;;26.90;99.70;;;;;;5075971;28;20044;-81
2022/05/19 13:07:46;;;;;;;0.35;0.35;;;26.40;99.90;;;;;;5076201;28;20049;-82
2022/05/19 13:10:23;;;;;;;;;;;25.80;99.90;;;;;;5094793;28;20063;-80
2022/05/19 13:13:14;;;;;;;0.20;0.20;;;25.30;99.90;;;;;;5082655;28;20419;-78
2022/05/19 13:15:52;;;;;;;0.30;0.30;;;24.80;99.90;;;;;;5084599;28;20402;-81
2022/05/19 13:18:30;;;;;;;0.20;0.20;;;24.10;99.90;;;;;;5092836;28;20047;-83
2022/05/19 13:21:07;;;;;;;0.20;0.20;;;23.80;99.90;;;;;;5062342;28;20093;-80
2022/05/19 13:23:33;;;;;;;0.20;0.20;;;23.50;99.90;;;;;;5096433;28;20507;-78
2022/05/19 13:26:08;;;;;;;0.30;0.30;;;23.20;99.90;;;;;;5095640;28;20480;-78
2022/05/19 13:31:35;;;;;;;0.30;0.30;;;22.60;99.90;;;;;;5095903;28;20072;-78
2022/05/19 13:34:01;;;;;;;0.30;0.30;;;22.40;99.90;;;;;;5095861;28;20494;-81
2022/05/19 13:36:29;;;;;;;0.40;0.40;;;22.10;99.90;;;;;;5095428;28;20132;-76